createdAt,value
2018-07-23T00:01:08.453Z,22.23
2018-07-23T00:03:36.695Z,21.00
2018-07-23T00:06:04.943Z,20.80
2018-07-23T00:08:33.125Z,21.07
2018-07-23T00:11:01.342Z,21.00
2018-07-23T00:13:29.546Z,19.40
2018-07-23T00:15:57.775Z,20.47
2018-07-23T00:18:25.985Z,18.87
2018-07-23T00:20:54.216Z,20.47
2018-07-23T00:23:22.726Z,21.13
2018-07-23T00:25:50.921Z,19.30
2018-07-23T00:28:19.392Z,19.77
2018-07-23T00:30:47.605Z,19.20
2018-07-23T00:33:15.830Z,19.27
2018-07-23T00:35:44.026Z,17.90
2018-07-23T00:38:12.277Z,17.83
2018-07-23T00:40:40.506Z,18.10
2018-07-23T00:43:08.722Z,18.20
2018-07-23T00:45:36.925Z,20.50
2018-07-23T00:48:05.106Z,20.07
2018-07-23T00:50:33.318Z,18.10
2018-07-23T00:53:01.506Z,17.43
2018-07-23T00:55:29.745Z,17.20
2018-07-23T00:57:58.006Z,18.07
2018-07-23T01:00:26.246Z,17.00
2018-07-23T01:02:54.469Z,17.97
2018-07-23T01:05:22.651Z,17.90
2018-07-23T01:07:50.997Z,17.53
2018-07-23T01:10:19.197Z,17.57
2018-07-23T01:12:47.423Z,17.47
2018-07-23T01:15:15.645Z,18.57
2018-07-23T01:17:43.894Z,16.97
2018-07-23T01:20:12.090Z,17.27
2018-07-23T01:22:40.303Z,17.53
2018-07-23T01:25:08.497Z,18.60
2018-07-23T01:27:36.721Z,19.50
2018-07-23T01:30:05.357Z,18.00
2018-07-23T01:32:33.561Z,18.50
2018-07-23T01:35:01.753Z,19.07
2018-07-23T01:37:29.968Z,17.63
2018-07-23T01:39:58.184Z,17.77
2018-07-23T01:42:26.369Z,16.87
2018-07-23T01:44:54.594Z,18.67
2018-07-23T01:47:22.803Z,18.40
2018-07-23T01:49:51.013Z,18.43
2018-07-23T01:52:19.241Z,18.30
2018-07-23T01:54:47.470Z,18.33
2018-07-23T01:57:15.664Z,16.90
2018-07-23T01:59:43.856Z,19.30
2018-07-23T02:02:12.058Z,17.07
2018-07-23T02:04:40.256Z,18.60
2018-07-23T02:07:08.645Z,17.03
2018-07-23T02:09:36.858Z,17.57
2018-07-23T02:12:05.693Z,16.50
2018-07-23T02:14:33.922Z,16.90
2018-07-23T02:17:02.122Z,17.07
2018-07-23T02:19:30.305Z,16.20
2018-07-23T02:21:58.493Z,16.67
2018-07-23T02:24:26.723Z,16.00
2018-07-23T02:26:54.933Z,16.40
2018-07-23T02:29:23.341Z,16.03
2018-07-23T02:31:51.561Z,16.80
2018-07-23T02:34:19.953Z,16.10
2018-07-23T02:36:48.179Z,16.60
2018-07-23T02:39:16.389Z,17.00
2018-07-23T02:41:44.589Z,16.67
2018-07-23T02:44:12.803Z,16.70
2018-07-23T02:46:40.771Z,16.50
2018-07-23T02:49:08.978Z,16.63
2018-07-23T02:51:37.190Z,16.37
2018-07-23T02:54:05.393Z,17.80
2018-07-23T02:56:33.577Z,16.43
2018-07-23T02:59:01.784Z,17.17
2018-07-23T03:01:29.970Z,15.97
2018-07-23T03:03:58.182Z,17.57
2018-07-23T03:06:28.022Z,16.30
2018-07-23T03:08:56.471Z,16.60
2018-07-23T03:11:25.158Z,16.70
2018-07-23T03:13:53.374Z,16.10
2018-07-23T03:16:22.149Z,16.70
2018-07-23T03:18:51.110Z,17.77
2018-07-23T03:21:19.331Z,16.33
2018-07-23T03:23:47.522Z,15.50
2018-07-23T03:26:15.726Z,16.27
2018-07-23T03:28:43.932Z,16.60
2018-07-23T03:31:11.891Z,15.07
2018-07-23T03:33:40.085Z,17.10
2018-07-23T03:36:08.301Z,17.73
2018-07-23T03:38:36.473Z,16.53
2018-07-23T03:41:04.957Z,17.57
2018-07-23T03:43:33.150Z,17.33
2018-07-23T03:46:01.376Z,18.43
2018-07-23T03:48:29.567Z,17.47
2018-07-23T03:50:57.772Z,17.20
2018-07-23T03:53:25.956Z,19.50
2018-07-23T03:55:54.176Z,19.37
2018-07-23T03:58:22.377Z,19.90
2018-07-23T04:00:50.749Z,19.77
2018-07-23T04:03:19.121Z,19.10
2018-07-23T04:12:31.406Z,19.13
2018-07-23T04:15:00.142Z,19.77
2018-07-23T04:17:28.362Z,20.20
2018-07-23T04:19:56.549Z,20.97
2018-07-23T04:22:24.764Z,19.07
2018-07-23T04:24:53.109Z,20.00
2018-07-23T04:27:21.297Z,20.17
2018-07-23T04:29:49.518Z,19.10
2018-07-23T04:32:17.753Z,19.97
2018-07-23T04:34:45.965Z,20.10
2018-07-23T04:37:14.165Z,19.87
2018-07-23T04:39:42.391Z,20.70
2018-07-23T04:42:11.106Z,19.57
2018-07-23T04:44:39.457Z,19.37
2018-07-23T04:47:07.841Z,19.97
2018-07-23T04:49:36.025Z,18.60
2018-07-23T04:52:04.231Z,20.10
2018-07-23T04:54:32.453Z,17.80
2018-07-23T04:57:00.693Z,20.47
2018-07-23T04:59:28.853Z,20.77
2018-07-23T05:01:57.037Z,20.60
2018-07-23T05:04:25.243Z,20.67
2018-07-23T05:06:53.459Z,20.30
2018-07-23T05:09:21.699Z,20.33
2018-07-23T05:11:50.065Z,20.10
2018-07-23T05:14:18.236Z,20.00
2018-07-23T05:16:47.044Z,21.13
2018-07-23T05:19:15.241Z,19.90
2018-07-23T05:21:43.458Z,18.87
2018-07-23T05:24:11.703Z,19.60
2018-07-23T05:26:39.910Z,18.57
2018-07-23T05:29:08.105Z,18.63
2018-07-23T05:31:36.513Z,17.43
2018-07-23T05:34:04.730Z,18.13
2018-07-23T05:36:32.930Z,18.27
2018-07-23T05:39:01.158Z,17.00
2018-07-23T05:41:29.357Z,17.87
2018-07-23T05:43:57.323Z,18.10
2018-07-23T05:46:25.546Z,17.50
2018-07-23T05:48:53.754Z,17.20
2018-07-23T05:51:21.991Z,17.20
2018-07-23T05:53:50.203Z,18.40
2018-07-23T05:56:18.409Z,16.90
2018-07-23T05:58:46.628Z,17.90
2018-07-23T06:01:14.887Z,18.40
2018-07-23T06:03:43.228Z,17.73
2018-07-23T06:06:11.389Z,17.27
2018-07-23T06:08:39.569Z,18.20
2018-07-23T06:11:07.834Z,18.50
2018-07-23T06:13:36.077Z,18.63
2018-07-23T06:16:04.286Z,18.13
2018-07-23T06:18:32.695Z,18.00
2018-07-23T06:21:00.887Z,18.77
2018-07-23T06:23:29.104Z,18.90
2018-07-23T06:25:57.309Z,19.03
2018-07-23T06:28:25.493Z,18.07
2018-07-23T06:30:53.472Z,19.03
2018-07-23T06:33:21.690Z,22.47
2018-07-23T06:35:51.521Z,20.77
2018-07-23T06:38:19.840Z,22.57
2018-07-23T06:40:48.046Z,21.80
2018-07-23T06:43:16.273Z,32.90
2018-07-23T06:45:44.490Z,21.10
2018-07-23T06:48:12.727Z,21.03
2018-07-23T06:50:41.121Z,20.63
2018-07-23T06:53:09.630Z,20.80
2018-07-23T06:55:37.849Z,21.23
2018-07-23T06:58:06.178Z,21.33
2018-07-23T07:00:34.411Z,22.07
2018-07-23T07:03:02.835Z,22.30
2018-07-23T07:05:31.120Z,26.63
2018-07-23T07:07:59.330Z,24.70
2018-07-23T07:10:27.682Z,25.70
2018-07-23T07:12:55.950Z,31.80
2018-07-23T07:15:24.198Z,23.77
2018-07-23T07:17:52.406Z,22.73
2018-07-23T07:20:21.255Z,23.53
2018-07-23T07:22:49.526Z,23.10
2018-07-23T07:25:17.805Z,25.50
2018-07-23T07:27:46.070Z,26.10
2018-07-23T07:30:14.355Z,24.70
2018-07-23T07:32:42.446Z,24.97
2018-07-23T07:35:10.691Z,23.53
2018-07-23T07:37:39.034Z,24.53
2018-07-23T07:40:07.330Z,25.43
2018-07-23T07:42:35.638Z,24.20
2018-07-23T07:45:04.658Z,25.90
2018-07-23T07:47:33.037Z,23.30
2018-07-23T07:50:01.469Z,23.30
2018-07-23T07:52:30.101Z,22.80
2018-07-23T07:54:58.413Z,24.40
2018-07-23T07:57:26.791Z,24.33
2018-07-23T07:59:55.032Z,24.30
2018-07-23T08:02:23.386Z,23.10
2018-07-23T08:04:51.850Z,26.90
2018-07-23T08:07:20.229Z,23.50
2018-07-23T08:09:48.654Z,25.10
2018-07-23T08:12:16.935Z,24.27
2018-07-23T08:14:45.209Z,24.30
2018-07-23T08:17:13.497Z,24.00
2018-07-23T08:19:41.799Z,21.87
2018-07-23T08:22:10.119Z,23.50
2018-07-23T08:24:38.719Z,23.50
2018-07-23T08:27:07.199Z,22.93
2018-07-23T08:29:35.611Z,22.50
2018-07-23T08:32:04.315Z,21.00
2018-07-23T08:34:32.186Z,24.60
2018-07-23T08:37:00.440Z,22.60
2018-07-23T08:39:29.351Z,22.80
2018-07-23T08:41:57.745Z,22.77
2018-07-23T08:44:26.105Z,23.77
2018-07-23T08:46:55.232Z,22.67
2018-07-23T08:49:23.709Z,23.40
2018-07-23T08:51:52.213Z,23.93
2018-07-23T08:54:20.569Z,24.07
2018-07-23T08:56:48.977Z,24.73
2018-07-23T08:59:17.576Z,25.17
2018-07-23T09:01:46.036Z,26.63
2018-07-23T09:04:14.556Z,24.13
2018-07-23T09:06:42.945Z,26.13
2018-07-23T09:09:11.951Z,25.40
2018-07-23T09:11:40.785Z,27.10
2018-07-23T09:14:09.173Z,27.30
2018-07-23T09:16:38.029Z,27.10
2018-07-23T09:19:06.414Z,26.03
2018-07-23T09:21:34.753Z,26.30
2018-07-23T09:24:03.147Z,23.33
2018-07-23T09:26:31.500Z,24.50
2018-07-23T09:28:59.850Z,24.67
2018-07-23T09:31:28.796Z,24.87
2018-07-23T09:33:57.286Z,27.77
2018-07-23T09:36:25.598Z,25.90
2018-07-23T09:38:53.942Z,27.57
2018-07-23T09:41:22.250Z,21.53
2018-07-23T09:43:50.610Z,24.20
2018-07-23T09:46:19.011Z,28.13
2018-07-23T09:48:47.329Z,28.30
2018-07-23T09:51:15.759Z,27.43
2018-07-23T09:53:44.670Z,27.70
2018-07-23T09:56:13.286Z,26.90
2018-07-23T09:58:41.629Z,27.30
2018-07-23T10:01:13.210Z,24.50
2018-07-23T10:03:42.298Z,24.87
2018-07-23T10:06:10.833Z,25.40
2018-07-23T10:08:39.089Z,26.90
2018-07-23T10:11:07.465Z,26.40
2018-07-23T10:13:35.702Z,27.33
2018-07-23T10:16:04.169Z,25.40
2018-07-23T10:18:32.439Z,31.10
2018-07-23T10:21:00.709Z,31.17
2018-07-23T10:23:29.112Z,26.63
2018-07-23T10:25:57.517Z,26.30
2018-07-23T10:28:25.920Z,25.40
2018-07-23T10:30:54.247Z,27.80
2018-07-23T10:33:22.804Z,27.23
2018-07-23T10:35:51.082Z,26.00
2018-07-23T10:38:19.305Z,26.80
2018-07-23T10:40:47.597Z,30.47
2018-07-23T10:43:15.705Z,26.70
2018-07-23T10:45:43.947Z,27.87
2018-07-23T10:48:12.721Z,28.23
2018-07-23T10:50:40.686Z,26.60
2018-07-23T10:53:08.952Z,27.50
2018-07-23T10:55:37.245Z,24.80
2018-07-23T10:58:05.646Z,24.30
2018-07-23T11:00:33.903Z,25.27
2018-07-23T11:03:02.311Z,24.17
2018-07-23T11:05:30.586Z,24.20
2018-07-23T11:07:58.789Z,25.27
2018-07-23T11:10:27.031Z,26.70
2018-07-23T11:12:55.272Z,27.07
2018-07-23T11:15:23.704Z,28.57
2018-07-23T11:17:52.028Z,28.40
2018-07-23T11:20:20.362Z,28.10
2018-07-23T11:22:48.636Z,26.77
2018-07-23T11:25:38.704Z,27.73
2018-07-23T11:27:45.217Z,27.27
2018-07-23T11:30:13.531Z,23.67
2018-07-23T11:32:41.929Z,24.83
2018-07-23T11:35:10.182Z,23.63
2018-07-23T11:37:38.910Z,25.90
2018-07-23T11:40:07.263Z,27.73
2018-07-23T11:42:35.640Z,24.73
2018-07-23T11:45:04.008Z,23.80
2018-07-23T11:47:32.360Z,23.90
2018-07-23T11:50:00.909Z,22.07
2018-07-23T11:52:29.156Z,24.30
2018-07-23T11:54:57.381Z,21.73
2018-07-23T11:57:25.720Z,24.30
2018-07-23T11:59:54.637Z,25.27
2018-07-23T12:02:23.207Z,22.77
2018-07-23T12:04:51.778Z,26.87
2018-07-23T12:07:20.580Z,23.00
2018-07-23T12:09:57.133Z,17.47
2018-07-23T12:12:25.554Z,18.73
2018-07-23T12:14:53.905Z,20.77
2018-07-23T12:17:22.746Z,20.10
2018-07-23T12:19:51.019Z,23.57
2018-07-23T12:22:19.358Z,18.93
2018-07-23T12:24:47.830Z,18.80
2018-07-23T12:27:16.108Z,19.70
2018-07-23T12:29:44.587Z,19.00
2018-07-23T12:32:12.903Z,21.83
2018-07-23T12:34:41.269Z,22.77
2018-07-23T12:37:09.683Z,21.37
2018-07-23T12:39:37.962Z,21.67
2018-07-23T12:42:06.549Z,22.30
2018-07-23T12:44:34.867Z,21.40
2018-07-23T12:47:03.263Z,22.93
2018-07-23T12:49:31.539Z,22.30
2018-07-23T12:52:00.158Z,22.70
2018-07-23T12:54:28.476Z,21.27
2018-07-23T12:56:56.769Z,20.73
2018-07-23T12:59:25.090Z,21.40
2018-07-23T13:01:53.304Z,23.07
2018-07-23T13:04:21.647Z,21.80
2018-07-23T13:06:49.927Z,22.23
2018-07-23T13:09:18.288Z,24.10
2018-07-23T13:11:46.560Z,22.20
2018-07-23T13:14:14.908Z,22.90
2018-07-23T13:16:43.204Z,23.30
2018-07-23T13:19:12.142Z,23.73
2018-07-23T13:21:40.474Z,23.60
2018-07-23T13:24:08.731Z,20.90
2018-07-23T13:26:37.177Z,23.80
2018-07-23T13:29:06.061Z,24.93
2018-07-23T13:31:34.464Z,21.87
2018-07-23T13:34:03.676Z,23.60
2018-07-23T13:36:33.181Z,22.77
2018-07-23T13:39:01.458Z,20.90
2018-07-23T13:41:29.921Z,19.40
2018-07-23T13:43:58.218Z,18.50
2018-07-23T13:46:26.576Z,18.67
2018-07-23T13:48:55.373Z,19.03
2018-07-23T13:51:23.586Z,20.60
2018-07-23T13:53:51.896Z,21.60
2018-07-23T13:56:20.162Z,20.37
2018-07-23T13:58:48.439Z,24.00
2018-07-23T14:01:16.772Z,20.23
2018-07-23T14:03:45.063Z,20.93
2018-07-23T14:06:13.485Z,22.13
2018-07-23T14:08:41.457Z,21.20
2018-07-23T14:11:09.766Z,21.53
2018-07-23T14:13:38.025Z,23.97
2018-07-23T14:16:06.322Z,21.03
2018-07-23T14:18:34.523Z,21.00
2018-07-23T14:21:03.024Z,23.07
2018-07-23T14:23:31.539Z,21.23
2018-07-23T14:25:59.773Z,20.03
2018-07-23T14:28:28.296Z,18.60
2018-07-23T14:30:56.542Z,19.60
2018-07-23T14:33:25.054Z,17.20
2018-07-23T14:35:53.261Z,18.20
2018-07-23T14:38:21.485Z,19.17
2018-07-23T14:40:50.573Z,15.30
2018-07-23T14:43:19.270Z,14.23
2018-07-23T14:45:47.525Z,14.20
2018-07-23T14:48:15.518Z,13.90
2018-07-23T14:50:43.789Z,17.77
2018-07-23T14:53:12.112Z,14.37
2018-07-23T14:55:40.411Z,13.70
2018-07-23T14:58:08.621Z,13.17
2018-07-23T15:00:36.911Z,12.27
2018-07-23T15:03:05.551Z,11.63
2018-07-23T15:05:34.030Z,10.73
2018-07-23T15:08:02.281Z,10.60
2018-07-23T15:10:30.582Z,9.30
2018-07-23T15:12:58.803Z,9.57
2018-07-23T15:15:27.032Z,9.63
2018-07-23T15:17:55.298Z,10.77
2018-07-23T15:20:23.632Z,10.30
2018-07-23T15:22:52.014Z,10.17
2018-07-23T15:25:20.287Z,10.43
2018-07-23T15:27:48.636Z,10.60
2018-07-23T15:30:16.870Z,10.60
2018-07-23T15:32:45.121Z,9.57
2018-07-23T15:35:13.317Z,10.30
2018-07-23T15:37:41.691Z,11.37
2018-07-23T15:40:10.033Z,12.13
2018-07-23T15:42:38.273Z,11.27
2018-07-23T15:45:06.587Z,12.00
2018-07-23T15:47:35.037Z,11.30
2018-07-23T15:50:04.762Z,11.80
2018-07-23T15:52:32.805Z,11.77
2018-07-23T15:55:01.026Z,12.90
2018-07-23T15:57:29.241Z,12.70
2018-07-23T15:59:57.470Z,11.70
2018-07-23T16:02:25.766Z,12.83
2018-07-23T16:04:54.023Z,13.70
2018-07-23T16:07:22.245Z,12.43
2018-07-23T16:09:50.494Z,12.27
2018-07-23T16:12:19.277Z,12.87
2018-07-23T16:14:47.500Z,12.70
2018-07-23T16:17:15.715Z,12.30
2018-07-23T16:19:43.952Z,12.30
2018-07-23T16:22:12.259Z,12.63
2018-07-23T16:24:40.556Z,11.83
2018-07-23T16:27:08.813Z,12.30
2018-07-23T16:29:37.054Z,12.30
2018-07-23T16:32:05.265Z,11.33
2018-07-23T16:34:33.520Z,12.40
2018-07-23T16:37:01.833Z,12.00
2018-07-23T16:39:30.038Z,12.30
2018-07-23T16:41:58.277Z,12.20
2018-07-23T16:44:26.522Z,12.03
2018-07-23T16:46:54.762Z,11.93
2018-07-23T16:49:22.956Z,12.10
2018-07-23T16:51:51.358Z,12.40
2018-07-23T16:54:19.569Z,12.20
2018-07-23T16:56:47.813Z,12.23
2018-07-23T16:59:16.066Z,12.33
2018-07-23T17:01:44.300Z,13.10
2018-07-23T17:04:12.769Z,13.57
2018-07-23T17:06:40.996Z,14.20
2018-07-23T17:09:11.261Z,13.87
2018-07-23T17:11:39.489Z,12.97
2018-07-23T17:14:08.025Z,14.10
2018-07-23T17:16:36.511Z,15.20
2018-07-23T17:19:04.770Z,13.93
2018-07-23T17:21:32.983Z,16.43
2018-07-23T17:24:01.336Z,21.73
2018-07-23T17:26:29.557Z,14.87
2018-07-23T17:28:57.778Z,15.63
2018-07-23T17:31:25.952Z,15.70
2018-07-23T17:33:54.373Z,16.10
2018-07-23T17:36:22.661Z,16.33
2018-07-23T17:38:51.094Z,16.17
2018-07-23T17:41:19.321Z,17.53
2018-07-23T17:43:47.625Z,16.33
2018-07-23T17:46:15.863Z,16.50
2018-07-23T17:48:44.091Z,16.50
2018-07-23T17:51:12.329Z,16.43
2018-07-23T17:53:40.832Z,17.30
2018-07-23T17:56:09.085Z,17.17
2018-07-23T17:58:37.305Z,16.67
2018-07-23T18:01:05.805Z,16.67
2018-07-23T18:03:34.013Z,18.70
2018-07-23T18:06:02.494Z,18.50
2018-07-23T18:08:30.722Z,19.30
2018-07-23T18:10:58.938Z,19.30
2018-07-23T18:13:27.125Z,22.50
2018-07-23T18:18:58.936Z,23.70
2018-07-23T18:21:27.401Z,25.57
2018-07-23T18:23:55.633Z,25.73
2018-07-23T18:26:23.887Z,27.70
2018-07-23T18:28:52.160Z,27.80
2018-07-23T18:31:20.493Z,25.37
2018-07-23T18:33:48.755Z,27.73
2018-07-23T18:36:17.675Z,29.63
2018-07-23T18:38:46.216Z,29.73
2018-07-23T18:41:14.477Z,31.10
2018-07-23T18:43:42.804Z,31.73
2018-07-23T18:46:11.039Z,30.87
2018-07-23T18:49:48.745Z,30.30
2018-07-23T18:52:17.741Z,26.60
2018-07-23T18:54:47.254Z,32.07
2018-07-23T19:03:59.432Z,29.60
2018-07-23T19:06:28.457Z,28.93
2018-07-23T19:08:56.702Z,32.43
2018-07-23T19:11:24.990Z,32.03
2018-07-23T19:13:53.244Z,37.10
2018-07-23T19:16:21.493Z,36.03
2018-07-23T19:18:49.448Z,34.23
2018-07-23T19:21:17.672Z,35.07
2018-07-23T19:23:45.894Z,34.93
2018-07-23T19:26:14.146Z,34.23
2018-07-23T19:28:42.500Z,35.20
2018-07-23T19:31:10.899Z,32.70
2018-07-23T19:33:39.101Z,31.57
2018-07-23T19:36:07.324Z,31.40
2018-07-23T19:38:35.541Z,31.07
2018-07-23T19:41:03.822Z,31.27
2018-07-23T19:43:32.068Z,29.73
2018-07-23T19:46:00.292Z,30.60
2018-07-23T19:48:28.537Z,29.50
2018-07-23T19:50:56.789Z,31.43
2018-07-23T19:53:25.101Z,31.07
2018-07-23T19:55:53.266Z,31.20
2018-07-23T19:58:21.570Z,32.47
2018-07-23T20:00:49.787Z,33.30
2018-07-23T20:03:18.069Z,37.23
2018-07-23T20:05:46.406Z,34.53
2018-07-23T20:08:14.617Z,36.53
2018-07-23T20:10:43.147Z,35.17
2018-07-23T20:13:11.438Z,34.57
2018-07-23T20:15:39.647Z,36.40
2018-07-23T20:18:07.877Z,32.27
2018-07-23T20:20:36.629Z,29.43
2018-07-23T20:23:04.869Z,28.33
2018-07-23T20:25:33.075Z,26.13
2018-07-23T20:28:01.529Z,21.83
2018-07-23T20:30:30.342Z,22.87
2018-07-23T20:32:58.606Z,23.50
2018-07-23T20:35:26.809Z,22.93
2018-07-23T20:37:55.078Z,22.20
2018-07-23T20:40:23.347Z,20.63
2018-07-23T20:42:51.465Z,21.60
2018-07-23T20:45:19.702Z,19.77
2018-07-23T20:47:47.989Z,18.50
2018-07-23T20:50:16.278Z,18.93
2018-07-23T20:52:44.495Z,16.80
2018-07-23T20:55:12.788Z,18.00
2018-07-23T20:57:41.026Z,19.20
2018-07-23T21:00:09.237Z,18.50
2018-07-23T21:02:37.537Z,18.67
2018-07-23T21:05:05.910Z,19.57
2018-07-23T21:09:03.374Z,18.80
2018-07-23T21:11:31.783Z,19.97
2018-07-23T21:14:00.023Z,20.43
2018-07-23T21:16:28.266Z,19.03
2018-07-23T21:18:56.508Z,18.00
2018-07-23T21:21:24.729Z,18.13
2018-07-23T21:23:52.959Z,17.33
2018-07-23T21:26:21.190Z,18.73
2018-07-23T21:28:49.445Z,19.50
2018-07-23T21:31:17.664Z,19.00
2018-07-23T21:33:45.948Z,19.63
2018-07-23T21:36:14.196Z,20.60
2018-07-23T21:38:42.449Z,18.73
2018-07-23T21:41:10.730Z,20.23
2018-07-23T21:43:38.977Z,20.37
2018-07-23T21:46:07.179Z,18.97
2018-07-23T21:48:35.436Z,20.40
2018-07-23T21:51:03.702Z,19.10
2018-07-23T21:53:31.905Z,21.10
2018-07-23T21:56:00.134Z,22.13
2018-07-23T21:58:28.342Z,20.70
2018-07-23T22:00:56.554Z,21.23
2018-07-23T22:03:24.761Z,21.30
2018-07-23T22:05:52.995Z,20.00
2018-07-23T22:08:21.215Z,21.43
2018-07-23T22:10:49.449Z,20.77
2018-07-23T22:13:17.677Z,21.30
2018-07-23T22:15:45.905Z,21.60
2018-07-23T22:18:14.122Z,20.60
2018-07-23T22:20:42.335Z,21.03
2018-07-23T22:23:10.577Z,22.30
2018-07-23T22:25:38.827Z,20.90
2018-07-23T22:28:07.053Z,23.03
2018-07-23T22:30:35.261Z,22.00
2018-07-23T22:33:03.495Z,22.47
2018-07-23T22:35:31.774Z,22.53
2018-07-23T22:37:59.981Z,23.70
2018-07-23T22:40:28.199Z,24.67
2018-07-23T22:42:56.429Z,23.30
2018-07-23T22:45:24.662Z,27.07
2018-07-23T22:47:52.874Z,24.27
2018-07-23T22:50:21.114Z,25.93
2018-07-23T22:52:49.357Z,26.03
2018-07-23T22:55:17.596Z,26.60
2018-07-23T22:57:45.865Z,26.27
2018-07-23T23:00:14.107Z,25.37
2018-07-23T23:02:42.353Z,26.83
2018-07-23T23:05:10.639Z,25.50
2018-07-23T23:07:38.893Z,25.30
2018-07-23T23:10:07.132Z,27.03
2018-07-23T23:12:35.366Z,26.90
2018-07-23T23:15:03.650Z,26.60
2018-07-23T23:17:31.865Z,25.10
2018-07-23T23:20:00.106Z,25.53
2018-07-23T23:22:28.465Z,26.27
2018-07-23T23:24:56.674Z,24.70
2018-07-23T23:27:24.936Z,23.77
2018-07-23T23:29:53.198Z,24.63
2018-07-23T23:32:21.417Z,25.60
2018-07-23T23:34:49.739Z,26.67
2018-07-23T23:37:17.961Z,22.87
2018-07-23T23:39:46.198Z,21.97
2018-07-23T23:42:14.473Z,26.50
2018-07-23T23:44:43.024Z,22.57
2018-07-23T23:47:11.225Z,24.70
2018-07-23T23:49:39.445Z,24.50
2018-07-23T23:52:07.725Z,25.97
2018-07-23T23:54:35.657Z,23.87
2018-07-23T23:57:03.925Z,23.30
2018-07-23T23:59:32.166Z,25.80
